sensor_id;sensor_type;location;lat;lon;timestamp;P1;durP1;ratioP1;P2;durP2;ratioP2
70806;SDS011;58882;52.170;5.386;2022-09-09T00:02:21;2.13;;;0.70;;
70806;SDS011;58882;52.170;5.386;2022-09-09T00:08:12;3.63;;;0.90;;
70806;SDS011;58882;52.170;5.386;2022-09-09T00:11:12;1.23;;;0.80;;
70806;SDS011;58882;52.170;5.386;2022-09-09T00:14:24;3.40;;;0.88;;
70806;SDS011;58882;52.170;5.386;2022-09-09T00:17:19;1.88;;;0.85;;
70806;SDS011;58882;52.170;5.386;2022-09-09T00:20:32;3.38;;;1.00;;
70806;SDS011;58882;52.170;5.386;2022-09-09T00:23:24;2.03;;;0.73;;
70806;SDS011;58882;52.170;5.386;2022-09-09T00:29:28;3.10;;;0.80;;
70806;SDS011;58882;52.170;5.386;2022-09-09T00:32:31;2.70;;;0.80;;
70806;SDS011;58882;52.170;5.386;2022-09-09T00:35:16;1.67;;;1.00;;
70806;SDS011;58882;52.170;5.386;2022-09-09T00:38:14;10.55;;;0.93;;
70806;SDS011;58882;52.170;5.386;2022-09-09T00:41:04;2.40;;;0.85;;
70806;SDS011;58882;52.170;5.386;2022-09-09T00:45:17;4.20;;;0.98;;
70806;SDS011;58882;52.170;5.386;2022-09-09T00:48:05;3.63;;;1.00;;
70806;SDS011;58882;52.170;5.386;2022-09-09T00:50:57;4.32;;;1.02;;
70806;SDS011;58882;52.170;5.386;2022-09-09T00:54:00;2.97;;;0.98;;
70806;SDS011;58882;52.170;5.386;2022-09-09T01:02:39;3.05;;;1.10;;
70806;SDS011;58882;52.170;5.386;2022-09-09T01:08:55;2.63;;;1.05;;
70806;SDS011;58882;52.170;5.386;2022-09-09T01:15:24;3.13;;;1.10;;
70806;SDS011;58882;52.170;5.386;2022-09-09T01:18:08;3.38;;;1.23;;
70806;SDS011;58882;52.170;5.386;2022-09-09T01:27:22;3.90;;;1.30;;
70806;SDS011;58882;52.170;5.386;2022-09-09T01:29:58;3.95;;;1.38;;
70806;SDS011;58882;52.170;5.386;2022-09-09T01:32:54;3.25;;;1.20;;
70806;SDS011;58882;52.170;5.386;2022-09-09T01:35:43;2.67;;;1.15;;
70806;SDS011;58882;52.170;5.386;2022-09-09T01:38:47;2.97;;;1.20;;
70806;SDS011;58882;52.170;5.386;2022-09-09T01:41:21;4.07;;;1.38;;
70806;SDS011;58882;52.170;5.386;2022-09-09T01:44:19;2.58;;;1.17;;
70806;SDS011;58882;52.170;5.386;2022-09-09T01:47:00;3.20;;;1.30;;
70806;SDS011;58882;52.170;5.386;2022-09-09T01:50:16;2.22;;;1.23;;
70806;SDS011;58882;52.170;5.386;2022-09-09T01:58:44;2.45;;;1.33;;
70806;SDS011;58882;52.170;5.386;2022-09-09T02:02:06;5.18;;;1.55;;
70806;SDS011;58882;52.170;5.386;2022-09-09T02:11:25;4.95;;;1.73;;
70806;SDS011;58882;52.170;5.386;2022-09-09T02:14:22;3.63;;;1.50;;
70806;SDS011;58882;52.170;5.386;2022-09-09T02:17:14;4.13;;;1.73;;
70806;SDS011;58882;52.170;5.386;2022-09-09T02:20:12;9.02;;;2.08;;
70806;SDS011;58882;52.170;5.386;2022-09-09T02:23:12;4.45;;;1.80;;
70806;SDS011;58882;52.170;5.386;2022-09-09T02:25:55;3.67;;;1.63;;
70806;SDS011;58882;52.170;5.386;2022-09-09T02:28:44;3.90;;;1.60;;
70806;SDS011;58882;52.170;5.386;2022-09-09T02:31:26;5.63;;;1.80;;
70806;SDS011;58882;52.170;5.386;2022-09-09T02:34:20;4.38;;;1.70;;
70806;SDS011;58882;52.170;5.386;2022-09-09T02:37:03;4.00;;;1.52;;
70806;SDS011;58882;52.170;5.386;2022-09-09T02:39:57;7.60;;;1.83;;
70806;SDS011;58882;52.170;5.386;2022-09-09T02:42:41;3.28;;;1.88;;
70806;SDS011;58882;52.170;5.386;2022-09-09T02:45:41;4.80;;;1.95;;
70806;SDS011;58882;52.170;5.386;2022-09-09T02:48:47;4.35;;;1.83;;
70806;SDS011;58882;52.170;5.386;2022-09-09T02:51:53;12.40;;;2.17;;
70806;SDS011;58882;52.170;5.386;2022-09-09T02:54:42;6.00;;;2.20;;
70806;SDS011;58882;52.170;5.386;2022-09-09T02:57:30;5.05;;;1.83;;
70806;SDS011;58882;52.170;5.386;2022-09-09T03:00:14;6.75;;;2.00;;
70806;SDS011;58882;52.170;5.386;2022-09-09T03:03:08;6.32;;;2.00;;
70806;SDS011;58882;52.170;5.386;2022-09-09T03:05:51;5.13;;;2.00;;
70806;SDS011;58882;52.170;5.386;2022-09-09T03:08:38;4.18;;;1.90;;
70806;SDS011;58882;52.170;5.386;2022-09-09T03:11:31;5.20;;;1.90;;
70806;SDS011;58882;52.170;5.386;2022-09-09T03:14:13;5.55;;;2.30;;
70806;SDS011;58882;52.170;5.386;2022-09-09T03:17:04;6.32;;;2.20;;
70806;SDS011;58882;52.170;5.386;2022-09-09T03:19:50;5.50;;;2.15;;
70806;SDS011;58882;52.170;5.386;2022-09-09T03:22:37;6.70;;;2.08;;
70806;SDS011;58882;52.170;5.386;2022-09-09T03:25:18;9.60;;;2.30;;
70806;SDS011;58882;52.170;5.386;2022-09-09T03:28:05;3.63;;;2.33;;
70806;SDS011;58882;52.170;5.386;2022-09-09T03:30:46;3.85;;;1.90;;
70806;SDS011;58882;52.170;5.386;2022-09-09T03:33:38;4.90;;;2.17;;
70806;SDS011;58882;52.170;5.386;2022-09-09T03:36:21;5.07;;;2.40;;
70806;SDS011;58882;52.170;5.386;2022-09-09T03:39:01;5.25;;;2.13;;
70806;SDS011;58882;52.170;5.386;2022-09-09T03:41:49;3.03;;;1.73;;
70806;SDS011;58882;52.170;5.386;2022-09-09T03:44:31;4.95;;;2.20;;
70806;SDS011;58882;52.170;5.386;2022-09-09T03:47:29;4.80;;;1.83;;
70806;SDS011;58882;52.170;5.386;2022-09-09T03:50:05;8.57;;;2.78;;
70806;SDS011;58882;52.170;5.386;2022-09-09T03:53:00;7.47;;;2.50;;
70806;SDS011;58882;52.170;5.386;2022-09-09T03:55:44;5.72;;;2.28;;
70806;SDS011;58882;52.170;5.386;2022-09-09T03:58:36;4.55;;;2.50;;
70806;SDS011;58882;52.170;5.386;2022-09-09T04:01:17;5.68;;;2.30;;
70806;SDS011;58882;52.170;5.386;2022-09-09T04:04:04;5.57;;;2.45;;
70806;SDS011;58882;52.170;5.386;2022-09-09T04:06:44;6.18;;;2.22;;
70806;SDS011;58882;52.170;5.386;2022-09-09T04:09:31;7.75;;;2.40;;
70806;SDS011;58882;52.170;5.386;2022-09-09T04:12:19;6.30;;;2.15;;
70806;SDS011;58882;52.170;5.386;2022-09-09T04:15:00;4.03;;;2.20;;
70806;SDS011;58882;52.170;5.386;2022-09-09T04:17:48;5.80;;;2.50;;
70806;SDS011;58882;52.170;5.386;2022-09-09T04:20:23;4.63;;;2.30;;
70806;SDS011;58882;52.170;5.386;2022-09-09T04:23:18;6.50;;;2.58;;
70806;SDS011;58882;52.170;5.386;2022-09-09T04:25:59;6.47;;;2.45;;
70806;SDS011;58882;52.170;5.386;2022-09-09T04:28:46;5.93;;;2.20;;
70806;SDS011;58882;52.170;5.386;2022-09-09T04:31:21;5.47;;;2.22;;
70806;SDS011;58882;52.170;5.386;2022-09-09T04:34:16;5.97;;;2.38;;
70806;SDS011;58882;52.170;5.386;2022-09-09T04:36:56;8.05;;;2.70;;
70806;SDS011;58882;52.170;5.386;2022-09-09T04:42:17;6.25;;;2.10;;
70806;SDS011;58882;52.170;5.386;2022-09-09T04:45:11;5.53;;;2.42;;
70806;SDS011;58882;52.170;5.386;2022-09-09T04:47:53;8.10;;;2.40;;
70806;SDS011;58882;52.170;5.386;2022-09-09T04:50:53;4.70;;;2.15;;
70806;SDS011;58882;52.170;5.386;2022-09-09T04:53:42;5.40;;;2.22;;
70806;SDS011;58882;52.170;5.386;2022-09-09T04:56:29;7.60;;;2.30;;
70806;SDS011;58882;52.170;5.386;2022-09-09T04:59:10;6.18;;;1.80;;
70806;SDS011;58882;52.170;5.386;2022-09-09T05:02:00;4.32;;;2.10;;
70806;SDS011;58882;52.170;5.386;2022-09-09T05:04:42;6.20;;;2.13;;
70806;SDS011;58882;52.170;5.386;2022-09-09T05:07:35;4.82;;;2.20;;
70806;SDS011;58882;52.170;5.386;2022-09-09T05:10:15;4.97;;;1.90;;
70806;SDS011;58882;52.170;5.386;2022-09-09T05:13:04;4.38;;;1.90;;
70806;SDS011;58882;52.170;5.386;2022-09-09T05:15:51;5.78;;;1.95;;
70806;SDS011;58882;52.170;5.386;2022-09-09T05:18:40;7.93;;;2.10;;
70806;SDS011;58882;52.170;5.386;2022-09-09T05:21:22;6.05;;;1.92;;
70806;SDS011;58882;52.170;5.386;2022-09-09T05:24:11;5.43;;;1.90;;
70806;SDS011;58882;52.170;5.386;2022-09-09T05:26:54;4.63;;;1.90;;
70806;SDS011;58882;52.170;5.386;2022-09-09T05:29:41;4.82;;;1.67;;
70806;SDS011;58882;52.170;5.386;2022-09-09T05:32:23;4.43;;;1.75;;
70806;SDS011;58882;52.170;5.386;2022-09-09T05:35:13;6.00;;;1.90;;
70806;SDS011;58882;52.170;5.386;2022-09-09T05:37:58;7.78;;;2.03;;
70806;SDS011;58882;52.170;5.386;2022-09-09T05:40:48;9.85;;;1.75;;
70806;SDS011;58882;52.170;5.386;2022-09-09T05:43:30;5.70;;;1.70;;
70806;SDS011;58882;52.170;5.386;2022-09-09T05:46:19;3.92;;;1.52;;
70806;SDS011;58882;52.170;5.386;2022-09-09T05:49:01;4.43;;;1.92;;
70806;SDS011;58882;52.170;5.386;2022-09-09T05:51:48;5.57;;;1.50;;
70806;SDS011;58882;52.170;5.386;2022-09-09T05:54:29;7.93;;;2.30;;
70806;SDS011;58882;52.170;5.386;2022-09-09T05:57:17;9.52;;;1.90;;
70806;SDS011;58882;52.170;5.386;2022-09-09T05:59:59;2.15;;;1.33;;
70806;SDS011;58882;52.170;5.386;2022-09-09T06:02:52;7.18;;;1.83;;
70806;SDS011;58882;52.170;5.386;2022-09-09T06:05:31;5.88;;;1.55;;
70806;SDS011;58882;52.170;5.386;2022-09-09T06:08:18;5.18;;;1.83;;
70806;SDS011;58882;52.170;5.386;2022-09-09T06:11:06;5.18;;;1.73;;
70806;SDS011;58882;52.170;5.386;2022-09-09T06:14:03;2.00;;;1.40;;
70806;SDS011;58882;52.170;5.386;2022-09-09T06:16:38;5.47;;;1.70;;
70806;SDS011;58882;52.170;5.386;2022-09-09T06:19:34;5.38;;;1.60;;
70806;SDS011;58882;52.170;5.386;2022-09-09T06:22:15;6.97;;;1.60;;
70806;SDS011;58882;52.170;5.386;2022-09-09T06:25:01;4.82;;;1.50;;
70806;SDS011;58882;52.170;5.386;2022-09-09T06:27:42;4.30;;;1.58;;
70806;SDS011;58882;52.170;5.386;2022-09-09T06:30:28;5.82;;;1.65;;
70806;SDS011;58882;52.170;5.386;2022-09-09T06:33:10;6.00;;;1.60;;
70806;SDS011;58882;52.170;5.386;2022-09-09T06:36:05;5.60;;;1.70;;
70806;SDS011;58882;52.170;5.386;2022-09-09T06:38:46;6.97;;;1.67;;
70806;SDS011;58882;52.170;5.386;2022-09-09T06:41:40;6.28;;;1.70;;
70806;SDS011;58882;52.170;5.386;2022-09-09T06:44:51;6.47;;;1.60;;
70806;SDS011;58882;52.170;5.386;2022-09-09T06:47:55;5.13;;;1.45;;
70806;SDS011;58882;52.170;5.386;2022-09-09T06:50:36;4.25;;;1.30;;
70806;SDS011;58882;52.170;5.386;2022-09-09T06:53:23;5.47;;;1.50;;
70806;SDS011;58882;52.170;5.386;2022-09-09T06:59:07;5.18;;;1.30;;
70806;SDS011;58882;52.170;5.386;2022-09-09T07:01:51;3.85;;;1.20;;
70806;SDS011;58882;52.170;5.386;2022-09-09T07:04:38;2.80;;;1.00;;
70806;SDS011;58882;52.170;5.386;2022-09-09T07:07:18;6.97;;;1.02;;
70806;SDS011;58882;52.170;5.386;2022-09-09T07:10:06;6.55;;;1.80;;
70806;SDS011;58882;52.170;5.386;2022-09-09T07:15:36;3.60;;;1.20;;
70806;SDS011;58882;52.170;5.386;2022-09-09T07:18:17;3.72;;;1.17;;
70806;SDS011;58882;52.170;5.386;2022-09-09T07:21:03;5.28;;;1.20;;
70806;SDS011;58882;52.170;5.386;2022-09-09T07:23:44;5.50;;;1.30;;
70806;SDS011;58882;52.170;5.386;2022-09-09T07:26:31;6.40;;;1.27;;
70806;SDS011;58882;52.170;5.386;2022-09-09T07:29:11;4.70;;;0.95;;
70806;SDS011;58882;52.170;5.386;2022-09-09T07:31:59;4.22;;;1.08;;
70806;SDS011;58882;52.170;5.386;2022-09-09T07:34:40;6.30;;;1.05;;
70806;SDS011;58882;52.170;5.386;2022-09-09T07:37:26;3.67;;;1.13;;
70806;SDS011;58882;52.170;5.386;2022-09-09T07:40:07;4.70;;;1.23;;
70806;SDS011;58882;52.170;5.386;2022-09-09T07:43:01;5.07;;;1.30;;
70806;SDS011;58882;52.170;5.386;2022-09-09T07:45:44;5.72;;;1.20;;
70806;SDS011;58882;52.170;5.386;2022-09-09T07:48:30;7.53;;;1.50;;
70806;SDS011;58882;52.170;5.386;2022-09-09T07:54:02;4.82;;;1.00;;
70806;SDS011;58882;52.170;5.386;2022-09-09T07:56:44;5.25;;;1.38;;
70806;SDS011;58882;52.170;5.386;2022-09-09T07:59:40;5.03;;;1.02;;
70806;SDS011;58882;52.170;5.386;2022-09-09T08:02:21;4.55;;;1.00;;
70806;SDS011;58882;52.170;5.386;2022-09-09T08:05:08;6.07;;;1.42;;
70806;SDS011;58882;52.170;5.386;2022-09-09T08:07:49;5.80;;;1.10;;
70806;SDS011;58882;52.170;5.386;2022-09-09T08:10:36;5.30;;;1.05;;
70806;SDS011;58882;52.170;5.386;2022-09-09T08:13:23;4.85;;;1.17;;
70806;SDS011;58882;52.170;5.386;2022-09-09T08:16:08;6.28;;;1.30;;
70806;SDS011;58882;52.170;5.386;2022-09-09T08:19:02;6.40;;;1.38;;
70806;SDS011;58882;52.170;5.386;2022-09-09T08:21:44;9.50;;;1.33;;
70806;SDS011;58882;52.170;5.386;2022-09-09T08:24:32;6.20;;;1.33;;
70806;SDS011;58882;52.170;5.386;2022-09-09T08:27:12;5.85;;;1.20;;
70806;SDS011;58882;52.170;5.386;2022-09-09T08:29:59;5.00;;;1.13;;
70806;SDS011;58882;52.170;5.386;2022-09-09T08:32:40;8.35;;;1.25;;
70806;SDS011;58882;52.170;5.386;2022-09-09T08:35:30;6.55;;;1.30;;
70806;SDS011;58882;52.170;5.386;2022-09-09T08:38:12;5.53;;;1.50;;
70806;SDS011;58882;52.170;5.386;2022-09-09T08:50:40;8.85;;;1.52;;
70806;SDS011;58882;52.170;5.386;2022-09-09T08:53:21;6.70;;;1.40;;
70806;SDS011;58882;52.170;5.386;2022-09-09T08:56:24;8.32;;;1.50;;
70806;SDS011;58882;52.170;5.386;2022-09-09T08:59:00;7.95;;;1.38;;
70806;SDS011;58882;52.170;5.386;2022-09-09T09:02:02;8.73;;;1.35;;
70806;SDS011;58882;52.170;5.386;2022-09-09T09:07:59;5.80;;;1.17;;
70806;SDS011;58882;52.170;5.386;2022-09-09T09:10:46;6.28;;;1.30;;
70806;SDS011;58882;52.170;5.386;2022-09-09T09:14:34;3.03;;;1.23;;
70806;SDS011;58882;52.170;5.386;2022-09-09T09:17:03;6.25;;;1.20;;
70806;SDS011;58882;52.170;5.386;2022-09-09T09:19:59;8.38;;;1.52;;
70806;SDS011;58882;52.170;5.386;2022-09-09T09:22:42;4.95;;;1.35;;
70806;SDS011;58882;52.170;5.386;2022-09-09T09:25:44;4.53;;;1.20;;
70806;SDS011;58882;52.170;5.386;2022-09-09T09:28:26;7.78;;;1.48;;
70806;SDS011;58882;52.170;5.386;2022-09-09T09:31:20;6.00;;;1.60;;
70806;SDS011;58882;52.170;5.386;2022-09-09T09:34:01;6.72;;;1.42;;
70806;SDS011;58882;52.170;5.386;2022-09-09T09:36:53;6.13;;;1.30;;
70806;SDS011;58882;52.170;5.386;2022-09-09T09:39:35;4.70;;;1.38;;
70806;SDS011;58882;52.170;5.386;2022-09-09T09:42:48;5.82;;;1.55;;
70806;SDS011;58882;52.170;5.386;2022-09-09T09:45:32;7.10;;;1.15;;
70806;SDS011;58882;52.170;5.386;2022-09-09T09:48:33;7.15;;;1.42;;
70806;SDS011;58882;52.170;5.386;2022-09-09T09:51:14;6.43;;;1.30;;
70806;SDS011;58882;52.170;5.386;2022-09-09T09:57:09;4.93;;;1.38;;
70806;SDS011;58882;52.170;5.386;2022-09-09T10:00:04;6.88;;;1.70;;
70806;SDS011;58882;52.170;5.386;2022-09-09T10:03:12;4.25;;;1.20;;
70806;SDS011;58882;52.170;5.386;2022-09-09T10:08:49;5.65;;;1.30;;
70806;SDS011;58882;52.170;5.386;2022-09-09T10:11:51;9.23;;;1.60;;
70806;SDS011;58882;52.170;5.386;2022-09-09T10:18:08;9.15;;;1.52;;
70806;SDS011;58882;52.170;5.386;2022-09-09T10:30:48;4.82;;;1.38;;
70806;SDS011;58882;52.170;5.386;2022-09-09T10:33:51;6.00;;;1.40;;
70806;SDS011;58882;52.170;5.386;2022-09-09T10:36:59;4.65;;;1.30;;
70806;SDS011;58882;52.170;5.386;2022-09-09T10:39:43;5.55;;;1.30;;
70806;SDS011;58882;52.170;5.386;2022-09-09T10:42:37;4.70;;;1.15;;
70806;SDS011;58882;52.170;5.386;2022-09-09T10:45:18;3.78;;;1.10;;
70806;SDS011;58882;52.170;5.386;2022-09-09T10:48:24;5.47;;;1.20;;
70806;SDS011;58882;52.170;5.386;2022-09-09T10:57:24;3.80;;;1.20;;
70806;SDS011;58882;52.170;5.386;2022-09-09T11:00:23;9.38;;;1.67;;
70806;SDS011;58882;52.170;5.386;2022-09-09T11:03:00;3.30;;;1.20;;
70806;SDS011;58882;52.170;5.386;2022-09-09T11:05:57;8.45;;;1.90;;
70806;SDS011;58882;52.170;5.386;2022-09-09T11:08:43;5.45;;;1.30;;
70806;SDS011;58882;52.170;5.386;2022-09-09T11:11:37;6.38;;;1.17;;
70806;SDS011;58882;52.170;5.386;2022-09-09T11:14:31;5.47;;;1.20;;
70806;SDS011;58882;52.170;5.386;2022-09-09T11:17:33;4.55;;;1.30;;
70806;SDS011;58882;52.170;5.386;2022-09-09T11:20:19;4.93;;;1.20;;
70806;SDS011;58882;52.170;5.386;2022-09-09T11:23:15;6.65;;;1.40;;
70806;SDS011;58882;52.170;5.386;2022-09-09T11:26:01;5.43;;;1.40;;
70806;SDS011;58882;52.170;5.386;2022-09-09T11:32:50;5.68;;;1.50;;
70806;SDS011;58882;52.170;5.386;2022-09-09T11:42:45;4.82;;;1.40;;
70806;SDS011;58882;52.170;5.386;2022-09-09T11:45:33;4.82;;;1.17;;
70806;SDS011;58882;52.170;5.386;2022-09-09T11:48:34;7.00;;;1.35;;
70806;SDS011;58882;52.170;5.386;2022-09-09T11:51:33;3.78;;;1.08;;
70806;SDS011;58882;52.170;5.386;2022-09-09T11:54:30;4.13;;;1.10;;
70806;SDS011;58882;52.170;5.386;2022-09-09T11:57:23;3.63;;;1.15;;
70806;SDS011;58882;52.170;5.386;2022-09-09T12:00:06;5.97;;;1.00;;
70806;SDS011;58882;52.170;5.386;2022-09-09T12:02:53;6.63;;;1.35;;
70806;SDS011;58882;52.170;5.386;2022-09-09T12:05:38;4.90;;;1.30;;
70806;SDS011;58882;52.170;5.386;2022-09-09T12:08:28;5.50;;;1.10;;
70806;SDS011;58882;52.170;5.386;2022-09-09T12:11:09;4.80;;;1.25;;
70806;SDS011;58882;52.170;5.386;2022-09-09T12:13:58;4.03;;;1.23;;
70806;SDS011;58882;52.170;5.386;2022-09-09T12:16:53;5.28;;;1.30;;
70806;SDS011;58882;52.170;5.386;2022-09-09T12:19:34;4.20;;;1.27;;
70806;SDS011;58882;52.170;5.386;2022-09-09T12:28:52;5.15;;;1.30;;
70806;SDS011;58882;52.170;5.386;2022-09-09T12:34:52;4.55;;;1.30;;
70806;SDS011;58882;52.170;5.386;2022-09-09T12:40:34;4.85;;;1.40;;
70806;SDS011;58882;52.170;5.386;2022-09-09T12:43:18;4.47;;;1.25;;
70806;SDS011;58882;52.170;5.386;2022-09-09T12:46:48;3.22;;;1.30;;
70806;SDS011;58882;52.170;5.386;2022-09-09T12:49:32;3.60;;;1.13;;
70806;SDS011;58882;52.170;5.386;2022-09-09T12:52:30;8.32;;;1.45;;
70806;SDS011;58882;52.170;5.386;2022-09-09T12:55:21;5.43;;;1.15;;
70806;SDS011;58882;52.170;5.386;2022-09-09T12:58:11;4.10;;;1.33;;
70806;SDS011;58882;52.170;5.386;2022-09-09T13:00:56;3.67;;;1.30;;
70806;SDS011;58882;52.170;5.386;2022-09-09T13:03:44;4.53;;;1.15;;
70806;SDS011;58882;52.170;5.386;2022-09-09T13:06:28;4.28;;;1.10;;
70806;SDS011;58882;52.170;5.386;2022-09-09T13:09:16;4.15;;;1.00;;
70806;SDS011;58882;52.170;5.386;2022-09-09T13:11:57;5.00;;;1.30;;
70806;SDS011;58882;52.170;5.386;2022-09-09T13:14:44;3.38;;;1.30;;
70806;SDS011;58882;52.170;5.386;2022-09-09T13:17:27;6.45;;;1.33;;
70806;SDS011;58882;52.170;5.386;2022-09-09T13:20:16;6.03;;;1.30;;
70806;SDS011;58882;52.170;5.386;2022-09-09T13:22:57;5.18;;;1.33;;
70806;SDS011;58882;52.170;5.386;2022-09-09T13:25:59;3.95;;;1.10;;
70806;SDS011;58882;52.170;5.386;2022-09-09T13:28:47;5.72;;;1.40;;
70806;SDS011;58882;52.170;5.386;2022-09-09T13:31:36;3.05;;;1.00;;
70806;SDS011;58882;52.170;5.386;2022-09-09T13:34:27;4.43;;;1.20;;
70806;SDS011;58882;52.170;5.386;2022-09-09T13:37:22;6.35;;;1.42;;
70806;SDS011;58882;52.170;5.386;2022-09-09T13:40:18;3.65;;;1.30;;
70806;SDS011;58882;52.170;5.386;2022-09-09T13:43:15;4.57;;;1.30;;
70806;SDS011;58882;52.170;5.386;2022-09-09T13:46:23;6.22;;;1.50;;
70806;SDS011;58882;52.170;5.386;2022-09-09T13:51:51;4.03;;;1.20;;
70806;SDS011;58882;52.170;5.386;2022-09-09T13:54:55;4.57;;;1.30;;
70806;SDS011;58882;52.170;5.386;2022-09-09T13:57:38;5.72;;;1.40;;
70806;SDS011;58882;52.170;5.386;2022-09-09T14:00:42;3.53;;;1.40;;
70806;SDS011;58882;52.170;5.386;2022-09-09T14:03:17;2.83;;;1.10;;
70806;SDS011;58882;52.170;5.386;2022-09-09T14:06:10;5.25;;;1.40;;
70806;SDS011;58882;52.170;5.386;2022-09-09T14:08:52;3.70;;;1.17;;
70806;SDS011;58882;52.170;5.386;2022-09-09T14:11:41;3.10;;;1.05;;
70806;SDS011;58882;52.170;5.386;2022-09-09T14:14:35;6.50;;;1.58;;
70806;SDS011;58882;52.170;5.386;2022-09-09T14:17:16;4.05;;;1.40;;
70806;SDS011;58882;52.170;5.386;2022-09-09T14:20:03;4.65;;;1.30;;
70806;SDS011;58882;52.170;5.386;2022-09-09T14:22:49;4.60;;;1.38;;
70806;SDS011;58882;52.170;5.386;2022-09-09T14:25:42;4.40;;;1.23;;
70806;SDS011;58882;52.170;5.386;2022-09-09T14:28:22;5.78;;;1.45;;
70806;SDS011;58882;52.170;5.386;2022-09-09T14:31:29;4.88;;;1.20;;
70806;SDS011;58882;52.170;5.386;2022-09-09T14:34:10;4.78;;;1.40;;
70806;SDS011;58882;52.170;5.386;2022-09-09T14:37:03;4.63;;;1.40;;
70806;SDS011;58882;52.170;5.386;2022-09-09T14:39:58;4.63;;;1.30;;
70806;SDS011;58882;52.170;5.386;2022-09-09T14:42:32;4.85;;;1.30;;
70806;SDS011;58882;52.170;5.386;2022-09-09T14:45:26;3.47;;;1.30;;
70806;SDS011;58882;52.170;5.386;2022-09-09T14:48:06;3.95;;;1.40;;
70806;SDS011;58882;52.170;5.386;2022-09-09T14:50:52;3.03;;;1.20;;
70806;SDS011;58882;52.170;5.386;2022-09-09T14:53:33;3.70;;;1.30;;
70806;SDS011;58882;52.170;5.386;2022-09-09T14:56:27;6.18;;;1.60;;
70806;SDS011;58882;52.170;5.386;2022-09-09T14:59:09;3.47;;;1.13;;
70806;SDS011;58882;52.170;5.386;2022-09-09T15:01:56;5.20;;;1.35;;
70806;SDS011;58882;52.170;5.386;2022-09-09T15:04:30;3.78;;;1.27;;
70806;SDS011;58882;52.170;5.386;2022-09-09T15:07:24;3.10;;;1.20;;
70806;SDS011;58882;52.170;5.386;2022-09-09T15:09:58;2.97;;;1.30;;
70806;SDS011;58882;52.170;5.386;2022-09-09T15:12:51;4.55;;;1.10;;
70806;SDS011;58882;52.170;5.386;2022-09-09T15:15:32;5.30;;;1.23;;
70806;SDS011;58882;52.170;5.386;2022-09-09T15:18:21;5.85;;;1.50;;
70806;SDS011;58882;52.170;5.386;2022-09-09T15:21:02;2.08;;;1.10;;
70806;SDS011;58882;52.170;5.386;2022-09-09T15:23:50;4.60;;;1.20;;
70806;SDS011;58882;52.170;5.386;2022-09-09T15:26:31;4.22;;;1.50;;
70806;SDS011;58882;52.170;5.386;2022-09-09T15:29:27;2.97;;;1.15;;
70806;SDS011;58882;52.170;5.386;2022-09-09T15:32:08;4.30;;;1.20;;
70806;SDS011;58882;52.170;5.386;2022-09-09T15:34:54;4.78;;;1.40;;
70806;SDS011;58882;52.170;5.386;2022-09-09T15:37:35;3.97;;;1.00;;
70806;SDS011;58882;52.170;5.386;2022-09-09T15:40:28;4.18;;;1.17;;
70806;SDS011;58882;52.170;5.386;2022-09-09T15:43:05;2.88;;;1.02;;
70806;SDS011;58882;52.170;5.386;2022-09-09T15:46:05;3.00;;;1.13;;
70806;SDS011;58882;52.170;5.386;2022-09-09T15:49:09;4.50;;;1.20;;
70806;SDS011;58882;52.170;5.386;2022-09-09T15:52:01;3.72;;;1.00;;
70806;SDS011;58882;52.170;5.386;2022-09-09T15:54:43;3.45;;;1.00;;
70806;SDS011;58882;52.170;5.386;2022-09-09T15:57:29;6.47;;;1.27;;
70806;SDS011;58882;52.170;5.386;2022-09-09T16:00:10;3.97;;;1.20;;
70806;SDS011;58882;52.170;5.386;2022-09-09T16:02:57;4.07;;;1.08;;
70806;SDS011;58882;52.170;5.386;2022-09-09T16:05:38;5.72;;;1.00;;
70806;SDS011;58882;52.170;5.386;2022-09-09T16:08:25;3.72;;;0.90;;
70806;SDS011;58882;52.170;5.386;2022-09-09T16:11:15;1.80;;;0.90;;
70806;SDS011;58882;52.170;5.386;2022-09-09T16:14:04;4.10;;;1.00;;
70806;SDS011;58882;52.170;5.386;2022-09-09T16:16:58;2.53;;;0.88;;
70806;SDS011;58882;52.170;5.386;2022-09-09T16:19:33;4.43;;;1.02;;
70806;SDS011;58882;52.170;5.386;2022-09-09T16:22:27;4.25;;;1.10;;
70806;SDS011;58882;52.170;5.386;2022-09-09T16:25:01;2.50;;;1.10;;
70806;SDS011;58882;52.170;5.386;2022-09-09T16:27:54;3.88;;;1.10;;
70806;SDS011;58882;52.170;5.386;2022-09-09T16:30:28;1.75;;;0.90;;
70806;SDS011;58882;52.170;5.386;2022-09-09T16:33:21;3.17;;;0.77;;
70806;SDS011;58882;52.170;5.386;2022-09-09T16:36:06;3.13;;;1.05;;
70806;SDS011;58882;52.170;5.386;2022-09-09T16:38:55;4.60;;;1.20;;
70806;SDS011;58882;52.170;5.386;2022-09-09T16:41:42;2.13;;;0.90;;
70806;SDS011;58882;52.170;5.386;2022-09-09T16:44:38;3.53;;;1.10;;
70806;SDS011;58882;52.170;5.386;2022-09-09T16:47:19;5.63;;;1.17;;
70806;SDS011;58882;52.170;5.386;2022-09-09T16:50:06;2.50;;;0.85;;
70806;SDS011;58882;52.170;5.386;2022-09-09T16:52:46;2.90;;;1.10;;
70806;SDS011;58882;52.170;5.386;2022-09-09T16:55:32;4.07;;;1.23;;
70806;SDS011;58882;52.170;5.386;2022-09-09T16:58:10;2.85;;;0.93;;
70806;SDS011;58882;52.170;5.386;2022-09-09T17:01:04;4.43;;;1.20;;
70806;SDS011;58882;52.170;5.386;2022-09-09T17:03:45;2.90;;;1.30;;
70806;SDS011;58882;52.170;5.386;2022-09-09T17:06:36;5.55;;;1.33;;
70806;SDS011;58882;52.170;5.386;2022-09-09T17:09:17;3.45;;;1.17;;
70806;SDS011;58882;52.170;5.386;2022-09-09T17:12:07;5.03;;;1.00;;
70806;SDS011;58882;52.170;5.386;2022-09-09T17:15:01;5.35;;;1.40;;
70806;SDS011;58882;52.170;5.386;2022-09-09T17:17:41;4.47;;;1.25;;
70806;SDS011;58882;52.170;5.386;2022-09-09T17:20:34;3.72;;;1.13;;
70806;SDS011;58882;52.170;5.386;2022-09-09T17:23:18;2.58;;;1.20;;
70806;SDS011;58882;52.170;5.386;2022-09-09T17:26:12;4.13;;;1.00;;
70806;SDS011;58882;52.170;5.386;2022-09-09T17:28:49;4.05;;;1.20;;
70806;SDS011;58882;52.170;5.386;2022-09-09T17:31:43;2.22;;;1.00;;
70806;SDS011;58882;52.170;5.386;2022-09-09T17:34:24;3.03;;;1.13;;
70806;SDS011;58882;52.170;5.386;2022-09-09T17:37:10;5.90;;;1.25;;
70806;SDS011;58882;52.170;5.386;2022-09-09T17:39:52;2.33;;;1.00;;
70806;SDS011;58882;52.170;5.386;2022-09-09T17:42:39;4.55;;;1.35;;
70806;SDS011;58882;52.170;5.386;2022-09-09T17:45:20;3.92;;;1.23;;
70806;SDS011;58882;52.170;5.386;2022-09-09T17:48:00;2.97;;;1.10;;
70806;SDS011;58882;52.170;5.386;2022-09-09T17:51:00;4.47;;;1.70;;
70806;SDS011;58882;52.170;5.386;2022-09-09T17:53:43;20.38;;;1.60;;
70806;SDS011;58882;52.170;5.386;2022-09-09T17:56:32;4.45;;;1.35;;
70806;SDS011;58882;52.170;5.386;2022-09-09T17:59:12;4.22;;;1.25;;
70806;SDS011;58882;52.170;5.386;2022-09-09T18:02:08;6.90;;;1.20;;
70806;SDS011;58882;52.170;5.386;2022-09-09T18:04:44;6.10;;;1.48;;
70806;SDS011;58882;52.170;5.386;2022-09-09T18:07:37;5.65;;;1.38;;
70806;SDS011;58882;52.170;5.386;2022-09-09T18:10:11;4.22;;;1.38;;
70806;SDS011;58882;52.170;5.386;2022-09-09T18:13:04;5.72;;;1.45;;
70806;SDS011;58882;52.170;5.386;2022-09-09T18:15:42;8.55;;;1.55;;
70806;SDS011;58882;52.170;5.386;2022-09-09T18:18:35;4.47;;;1.30;;
70806;SDS011;58882;52.170;5.386;2022-09-09T18:21:09;3.72;;;1.33;;
70806;SDS011;58882;52.170;5.386;2022-09-09T18:24:05;6.97;;;1.50;;
70806;SDS011;58882;52.170;5.386;2022-09-09T18:26:46;4.85;;;1.48;;
70806;SDS011;58882;52.170;5.386;2022-09-09T18:29:33;3.50;;;1.35;;
70806;SDS011;58882;52.170;5.386;2022-09-09T18:32:14;4.18;;;1.45;;
70806;SDS011;58882;52.170;5.386;2022-09-09T18:35:01;7.82;;;1.40;;
70806;SDS011;58882;52.170;5.386;2022-09-09T18:37:35;5.72;;;1.38;;
70806;SDS011;58882;52.170;5.386;2022-09-09T18:40:31;3.35;;;1.40;;
70806;SDS011;58882;52.170;5.386;2022-09-09T18:43:12;3.20;;;1.33;;
70806;SDS011;58882;52.170;5.386;2022-09-09T18:46:02;3.42;;;1.45;;
70806;SDS011;58882;52.170;5.386;2022-09-09T18:48:36;5.28;;;1.58;;
70806;SDS011;58882;52.170;5.386;2022-09-09T18:51:34;4.18;;;1.40;;